Aviation Digital Data Service (ADDS)

Output produced by METARs form (2148 UTC 15 December 2017)
found at http://www.aviationweather.gov/adds/metars/
 
KAGC 152053Z 24010KT 10SM BKN045 OVC075 M03/M12 A2986 RMK AO2 SLP135 T10331117 57006
KAGC 151953Z 25013G18KT 10SM FEW041 BKN080 M04/M12 A2987 RMK AO2 SLP139 T10391122
KAGC 151853Z 26010KT 10SM FEW095 M04/M12 A2987 RMK AO2 SLP138 T10391122
KAGC 151753Z 23012G20KT 10SM BKN044 BKN090 M04/M12 A2988 RMK AO2 SLP142 T10441122 11044 21083 58018
KAGC 151653Z 25010G16KT 10SM OVC045 M05/M11 A2990 RMK AO2 SLP148 T10501111
KAGC 151553Z 24008KT 10SM CLR M05/M11 A2993 RMK AO2 SLP157 T10501106
KAGC 151453Z 22005KT 10SM BKN110 M06/M11 A2994 RMK AO2 SLP160 T10611106 55006
KAGC 151353Z 20004KT 9SM BKN120 M07/M11 A2993 RMK AO2 SLP160 T10721111
KAGC 151330Z 18004KT 8SM SCT014 BKN120 M07/M11 A2993 RMK AO2 T10721111
KAGC 151253Z 00000KT 6SM HZ OVC018 M08/M11 A2994 RMK AO2 SLP164 T10781106
KAGC 151204Z 16003KT 10SM BKN023 M08/M11 A2996 RMK AO2 T10831111
KAGC 151153Z 16003KT 9SM SCT023 M08/M12 A2996 RMK AO2 SLP168 70002 T10831117 11067 21089 56006
KAGC 151053Z 13003KT 10SM SCT026 M08/M11 A2996 RMK AO2 SLP170 T10831111
KAGC 150953Z 00000KT 10SM CLR M08/M12 A2996 RMK AO2 SLP170 T10831117
KAGC 150853Z 00000KT 10SM CLR M08/M12 A2997 RMK AO2 SLP174 T10831122 56012
KAGC 150753Z 17004KT 10SM CLR M08/M12 A2999 RMK AO2 SLP179 T10781117
KAGC 150653Z 11003KT 10SM CLR M07/M12 A2999 RMK AO2 SLP179 T10721122
KAGC 150553Z 00000KT 10SM CLR M07/M12 A3001 RMK AO2 SLP186 T10671122 11056 21067 58004
KAGC 150453Z 00000KT 10SM CLR M06/M12 A3003 RMK AO2 SLP191 T10611122 410061067
KAGC 150353Z 00000KT 10SM CLR M07/M12 A3003 RMK AO2 SLP191 T10671117
KAGC 150253Z 00000KT 10SM FEW037 M06/M12 A3002 RMK AO2 SLP189 T10611117 50001
KAGC 150153Z 00000KT 10SM OVC037 M06/M12 A3003 RMK AO2 SLP192 T10561122
KAGC 150053Z 29003KT 10SM OVC039 M06/M13 A3003 RMK AO2 SLP192 T10561128 $
KAGC 142353Z 00000KT 10SM OVC040 M06/M13 A3002 RMK AO2 SLP188 T10561128 11033 21056 53018 $
KAGC 142253Z 28003KT 10SM CLR M06/M13 A3000 RMK AO2 SLP179 T10561133
KAGC 142153Z 00000KT 10SM FEW038 M05/M14 A2998 RMK AO2 SLP170 T10501139